createdAt,value
2023-02-06T00:02:38.874Z,18.20
2023-02-06T00:07:46.251Z,18.20
2023-02-06T00:12:53.769Z,15.90
2023-02-06T00:18:01.319Z,15.00
2023-02-06T00:23:09.045Z,14.70
2023-02-06T00:28:16.806Z,15.60
2023-02-06T00:33:24.686Z,15.80
2023-02-06T00:38:32.665Z,23.60
2023-02-06T00:43:39.971Z,17.10
2023-02-06T00:48:47.248Z,24.20
2023-02-06T00:53:54.661Z,17.30
2023-02-06T00:59:02.063Z,19.60
2023-02-06T01:04:09.769Z,20.50
2023-02-06T01:09:18.730Z,17.30
2023-02-06T01:14:26.124Z,18.20
2023-02-06T01:19:33.527Z,18.80
2023-02-06T01:24:41.570Z,23.90
2023-02-06T01:29:51.081Z,20.00
2023-02-06T01:34:58.650Z,24.50
2023-02-06T01:40:06.695Z,22.10
2023-02-06T01:45:39.970Z,25.30
2023-02-06T01:50:52.156Z,25.70
2023-02-06T01:56:01.350Z,20.20
2023-02-06T02:01:10.604Z,20.10
2023-02-06T02:06:24.381Z,30.30
2023-02-06T02:11:35.863Z,22.90
2023-02-06T02:16:51.087Z,22.30
2023-02-06T02:22:24.323Z,24.40
2023-02-06T02:27:50.568Z,21.30
2023-02-06T02:33:29.517Z,25.20
2023-02-06T02:38:45.809Z,23.60
2023-02-06T02:43:58.894Z,19.30
2023-02-06T02:49:11.239Z,22.80
2023-02-06T02:54:19.320Z,20.40
2023-02-06T02:59:36.362Z,19.20
2023-02-06T03:04:53.038Z,22.30
2023-02-06T03:10:10.714Z,15.50
2023-02-06T03:15:28.010Z,20.90
2023-02-06T03:20:38.840Z,14.50
2023-02-06T03:25:49.610Z,16.00
2023-02-06T03:31:01.318Z,17.00
2023-02-06T03:36:11.538Z,17.50
2023-02-06T03:41:22.046Z,22.40
2023-02-06T03:46:30.732Z,18.20
2023-02-06T03:51:42.736Z,14.40
2023-02-06T03:56:54.623Z,17.30
2023-02-06T04:02:04.589Z,17.40
2023-02-06T04:07:17.875Z,17.90
2023-02-06T04:12:26.394Z,18.50
2023-02-06T04:17:49.658Z,16.10
2023-02-06T04:22:57.490Z,21.00
2023-02-06T04:28:05.388Z,21.90
2023-02-06T04:33:12.733Z,22.00
2023-02-06T04:38:20.003Z,20.80
2023-02-06T04:43:27.544Z,19.50
2023-02-06T04:48:35.010Z,17.40
2023-02-06T04:53:42.336Z,20.20
2023-02-06T04:58:49.678Z,15.60
2023-02-06T05:03:57.052Z,15.60
2023-02-06T05:09:04.963Z,19.00
2023-02-06T05:14:12.443Z,17.30
2023-02-06T05:19:20.287Z,21.00
2023-02-06T05:24:27.889Z,22.10
2023-02-06T05:29:35.279Z,18.40
2023-02-06T05:34:42.770Z,21.50
2023-02-06T05:39:50.239Z,21.50
2023-02-06T05:44:58.016Z,25.20
2023-02-06T05:50:05.439Z,14.90
2023-02-06T05:55:14.740Z,27.20
2023-02-06T06:00:23.088Z,23.40
2023-02-06T06:05:30.562Z,26.50
2023-02-06T06:10:37.973Z,22.00
2023-02-06T06:15:46.268Z,28.10
2023-02-06T06:20:53.824Z,24.00
2023-02-06T06:26:01.213Z,26.80
2023-02-06T06:31:12.270Z,27.50
2023-02-06T06:36:19.806Z,26.70
2023-02-06T06:41:27.405Z,21.20
2023-02-06T06:46:35.044Z,25.30
2023-02-06T06:51:42.528Z,26.80
2023-02-06T06:56:50.068Z,28.10
2023-02-06T07:01:57.402Z,31.30
2023-02-06T07:07:04.831Z,26.30
2023-02-06T07:12:12.712Z,30.00
2023-02-06T07:17:20.304Z,32.30
2023-02-06T07:22:28.094Z,27.20
2023-02-06T07:27:36.007Z,37.80
2023-02-06T07:32:43.667Z,30.10
2023-02-06T07:37:51.205Z,27.80
2023-02-06T07:42:58.686Z,35.50
2023-02-06T07:48:09.925Z,32.70
2023-02-06T07:53:17.287Z,32.90
2023-02-06T07:58:24.816Z,36.10
2023-02-06T08:03:32.524Z,37.10
2023-02-06T08:08:39.700Z,36.60
2023-02-06T08:13:47.861Z,37.70
2023-02-06T08:18:55.403Z,46.30
2023-02-06T08:24:04.093Z,31.70
2023-02-06T08:29:12.378Z,39.70
2023-02-06T08:34:19.974Z,41.40
2023-02-06T08:39:27.605Z,50.40
2023-02-06T08:44:35.050Z,47.20
2023-02-06T08:49:43.201Z,45.40
2023-02-06T08:54:51.440Z,37.70
2023-02-06T08:59:59.334Z,37.90
2023-02-06T09:05:07.138Z,39.00
2023-02-06T09:10:26.813Z,40.40
2023-02-06T09:15:35.876Z,35.60
2023-02-06T09:20:43.573Z,39.40
2023-02-06T09:25:51.247Z,38.50
2023-02-06T09:30:58.745Z,41.70
2023-02-06T09:36:11.533Z,38.50
2023-02-06T09:41:31.473Z,36.90
2023-02-06T09:46:46.886Z,33.00
2023-02-06T09:52:24.303Z,34.10
2023-02-06T09:57:43.302Z,31.80
2023-02-06T10:03:06.526Z,28.70
2023-02-06T10:08:24.412Z,29.00
2023-02-06T10:13:35.547Z,29.70
2023-02-06T10:18:47.493Z,30.00
2023-02-06T10:24:00.726Z,27.60
2023-02-06T10:29:16.567Z,23.60
2023-02-06T10:34:43.930Z,27.00
2023-02-06T10:40:15.142Z,21.30
2023-02-06T10:45:34.930Z,17.00
2023-02-06T10:50:49.709Z,15.10
2023-02-06T10:56:01.378Z,17.90
2023-02-06T11:01:24.984Z,20.60
2023-02-06T11:06:34.552Z,20.00
2023-02-06T11:11:43.784Z,19.60
2023-02-06T11:16:51.340Z,14.80
2023-02-06T11:22:10.874Z,16.10
2023-02-06T11:27:21.734Z,13.30
2023-02-06T11:32:38.617Z,15.10
2023-02-06T11:37:46.141Z,10.10
2023-02-06T11:42:55.543Z,8.80
2023-02-06T11:48:03.488Z,10.20
2023-02-06T11:53:18.518Z,8.40
2023-02-06T11:58:27.590Z,7.10
2023-02-06T12:03:38.684Z,9.40
2023-02-06T12:08:52.507Z,8.50
2023-02-06T12:14:05.527Z,7.10
2023-02-06T12:19:19.184Z,12.30
2023-02-06T12:24:31.547Z,8.60
2023-02-06T12:29:43.861Z,8.70
2023-02-06T12:34:57.795Z,7.90
2023-02-06T12:40:05.890Z,7.20
2023-02-06T12:45:24.915Z,6.10
2023-02-06T12:50:35.413Z,6.20
2023-02-06T12:55:49.845Z,4.40
2023-02-06T13:01:31.653Z,5.40
2023-02-06T13:06:50.160Z,4.80
2023-02-06T13:12:08.536Z,4.60
2023-02-06T13:17:21.596Z,3.70
2023-02-06T13:22:50.707Z,4.30
2023-02-06T13:27:59.921Z,1.50
2023-02-06T13:33:17.098Z,5.80
2023-02-06T13:38:38.608Z,5.40
2023-02-06T13:43:49.981Z,6.00
2023-02-06T13:49:26.229Z,6.40
2023-02-06T13:54:57.591Z,4.80
2023-02-06T14:00:12.273Z,7.60
2023-02-06T14:05:25.317Z,6.60
2023-02-06T14:11:29.857Z,8.60
2023-02-06T14:16:50.624Z,7.70
2023-02-06T14:22:06.843Z,8.30
2023-02-06T14:27:30.793Z,10.00
2023-02-06T14:32:48.442Z,9.30
2023-02-06T14:38:22.358Z,9.40
2023-02-06T14:43:34.534Z,12.20
2023-02-06T14:48:50.240Z,8.60
2023-02-06T14:54:00.760Z,8.00
2023-02-06T14:59:21.571Z,9.40
2023-02-06T15:04:32.330Z,5.50
2023-02-06T15:09:44.538Z,10.20
2023-02-06T15:14:57.845Z,11.20
2023-02-06T15:20:25.370Z,14.10
2023-02-06T15:25:42.404Z,12.50
2023-02-06T15:30:55.034Z,8.90
2023-02-06T15:36:04.953Z,12.40
2023-02-06T15:41:14.899Z,10.80
2023-02-06T15:46:22.619Z,11.10
2023-02-06T15:51:32.142Z,10.80
2023-02-06T15:56:42.995Z,13.00
2023-02-06T16:01:51.861Z,12.90
2023-02-06T16:07:12.996Z,12.80
2023-02-06T16:12:21.957Z,14.20
2023-02-06T16:17:36.233Z,13.70
2023-02-06T16:22:44.354Z,14.40
2023-02-06T16:27:53.400Z,10.80
2023-02-06T16:33:11.497Z,13.90
2023-02-06T16:38:19.298Z,13.00
2023-02-06T16:43:28.563Z,13.70
2023-02-06T16:48:36.049Z,16.20
2023-02-06T16:53:45.288Z,14.40
2023-02-06T16:58:53.332Z,13.30
2023-02-06T17:04:01.112Z,15.70
2023-02-06T17:09:11.494Z,17.60
2023-02-06T17:14:19.355Z,16.50
2023-02-06T17:19:27.581Z,12.40
2023-02-06T17:24:35.363Z,12.50
2023-02-06T17:29:43.646Z,23.10
2023-02-06T17:34:54.881Z,19.80
2023-02-06T17:40:02.660Z,17.20
2023-02-06T17:45:11.676Z,18.90
2023-02-06T17:50:20.216Z,15.00
2023-02-06T17:55:28.850Z,17.00
2023-02-06T18:00:36.770Z,14.90
2023-02-06T18:05:44.781Z,17.00
2023-02-06T18:10:52.829Z,16.80
2023-02-06T18:16:00.983Z,13.80
2023-02-06T18:21:08.879Z,16.30
2023-02-06T18:26:16.748Z,17.20
2023-02-06T18:31:30.070Z,18.70
2023-02-06T18:36:38.450Z,20.00
2023-02-06T18:42:04.272Z,19.30
2023-02-06T18:47:13.165Z,15.50
2023-02-06T18:52:20.570Z,15.90
2023-02-06T18:57:28.058Z,18.30
2023-02-06T19:02:36.180Z,15.60
2023-02-06T19:07:43.784Z,23.50
2023-02-06T19:12:51.401Z,21.50
2023-02-06T19:17:59.791Z,16.90
2023-02-06T19:23:07.218Z,19.60
2023-02-06T19:28:14.598Z,18.90
2023-02-06T19:33:22.116Z,20.30
2023-02-06T19:38:29.814Z,19.70
2023-02-06T19:43:37.668Z,21.60
2023-02-06T19:48:46.450Z,22.30
2023-02-06T19:53:55.536Z,23.10
2023-02-06T19:59:04.753Z,23.00
2023-02-06T20:04:14.130Z,22.50
2023-02-06T20:09:22.706Z,20.50
2023-02-06T20:14:35.634Z,17.80
2023-02-06T20:19:43.604Z,21.80
2023-02-06T20:24:51.595Z,20.90
2023-02-06T20:30:00.249Z,24.00
2023-02-06T20:35:08.543Z,24.90
2023-02-06T20:40:17.323Z,22.40
2023-02-06T20:45:25.326Z,23.30
2023-02-06T20:50:32.670Z,18.80
2023-02-06T20:55:44.633Z,20.90
2023-02-06T21:00:52.254Z,19.70
2023-02-06T21:06:03.096Z,19.80
2023-02-06T21:11:11.271Z,18.90
2023-02-06T21:16:18.797Z,18.50
2023-02-06T21:21:27.216Z,21.80
2023-02-06T21:26:34.943Z,19.40
2023-02-06T21:31:42.757Z,18.70
2023-02-06T21:36:50.454Z,21.10
2023-02-06T21:42:00.830Z,20.00
2023-02-06T21:47:10.260Z,19.30
2023-02-06T21:52:17.710Z,21.40
2023-02-06T21:57:25.308Z,19.50
2023-02-06T22:02:32.976Z,18.70
2023-02-06T22:07:41.035Z,23.80
2023-02-06T22:12:51.722Z,21.70
2023-02-06T22:17:59.576Z,24.70
2023-02-06T22:23:08.651Z,17.90
2023-02-06T22:28:16.284Z,20.10
2023-02-06T22:33:25.012Z,22.00
2023-02-06T22:38:32.974Z,22.40
2023-02-06T22:43:41.127Z,19.60
2023-02-06T22:48:49.126Z,19.20
2023-02-06T22:53:56.730Z,24.90
2023-02-06T22:59:06.222Z,18.30
2023-02-06T23:04:16.671Z,18.00
2023-02-06T23:09:27.150Z,21.50
2023-02-06T23:14:35.212Z,17.50
2023-02-06T23:19:42.957Z,21.90
2023-02-06T23:24:53.548Z,16.80
2023-02-06T23:30:01.792Z,18.50
2023-02-06T23:35:10.353Z,18.00
2023-02-06T23:40:17.416Z,17.60
2023-02-06T23:45:24.983Z,16.60
2023-02-06T23:50:32.671Z,17.20
2023-02-06T23:55:42.254Z,17.90
